createdAt,value
2022-08-08T00:02:30.429Z,41.86
2022-08-08T00:04:57.928Z,42.29
2022-08-08T00:07:38.004Z,42.28
2022-08-08T00:10:11.195Z,42.30
2022-08-08T00:12:48.508Z,42.32
2022-08-08T00:15:56.751Z,42.81
2022-08-08T00:18:23.577Z,42.30
2022-08-08T00:21:00.779Z,41.91
2022-08-08T00:23:42.486Z,42.31
2022-08-08T00:26:21.888Z,41.90
2022-08-08T00:29:03.617Z,42.05
2022-08-08T00:32:28.292Z,41.90
2022-08-08T00:35:04.289Z,42.15
2022-08-08T00:37:47.095Z,42.03
2022-08-08T00:41:10.329Z,42.06
2022-08-08T00:44:03.707Z,42.15
2022-08-08T00:47:14.272Z,42.29
2022-08-08T00:50:28.754Z,42.42
2022-08-08T00:53:06.866Z,42.81
2022-08-08T00:56:22.175Z,43.55
2022-08-08T00:59:43.814Z,43.88
2022-08-08T01:04:01.315Z,44.06
2022-08-08T01:06:27.158Z,44.16
2022-08-08T01:09:36.032Z,44.01
2022-08-08T01:12:34.086Z,44.29
2022-08-08T01:15:44.236Z,44.03
2022-08-08T01:18:54.357Z,43.90
2022-08-08T01:22:12.069Z,43.63
2022-08-08T01:25:39.911Z,44.02
2022-08-08T01:28:27.759Z,44.33
2022-08-08T01:32:06.709Z,44.27
2022-08-08T01:35:30.591Z,44.60
2022-08-08T01:38:23.649Z,44.43
2022-08-08T01:41:04.031Z,44.45
2022-08-08T01:43:50.691Z,45.27
2022-08-08T01:46:41.485Z,45.96
2022-08-08T01:49:22.752Z,45.91
2022-08-08T01:53:02.760Z,45.82
2022-08-08T01:55:26.623Z,46.19
2022-08-08T01:58:17.314Z,46.72
2022-08-08T02:01:00.437Z,47.11
2022-08-08T02:03:56.896Z,47.46
2022-08-08T02:06:46.282Z,47.69
2022-08-08T02:10:02.333Z,47.86
2022-08-08T02:12:27.084Z,47.61
2022-08-08T02:15:05.032Z,47.65
2022-08-08T02:17:54.898Z,47.58
2022-08-08T02:21:00.668Z,47.79
2022-08-08T02:23:31.758Z,47.53
2022-08-08T02:26:11.051Z,47.35
2022-08-08T02:29:01.702Z,47.35
2022-08-08T02:31:58.766Z,47.47
2022-08-08T02:35:07.888Z,48.09
2022-08-08T02:37:58.572Z,48.39
2022-08-08T02:40:39.229Z,48.76
2022-08-08T02:44:37.668Z,48.85
2022-08-08T02:46:57.018Z,49.38
2022-08-08T02:49:51.829Z,49.25
2022-08-08T02:52:50.349Z,49.08
2022-08-08T02:56:01.591Z,49.13
2022-08-08T03:02:20.298Z,49.20
2022-08-08T03:05:24.224Z,49.12
2022-08-08T03:08:33.631Z,48.95
2022-08-08T03:12:02.025Z,48.58
2022-08-08T03:15:56.572Z,48.51
2022-08-08T03:17:52.113Z,48.77
2022-08-08T03:20:46.786Z,48.83
2022-08-08T03:23:23.867Z,48.52
2022-08-08T03:25:59.652Z,48.68
2022-08-08T03:28:33.138Z,49.35
2022-08-08T03:31:25.662Z,50.52
2022-08-08T03:33:58.354Z,51.27
2022-08-08T03:36:31.847Z,50.91
2022-08-08T03:39:14.906Z,50.48
2022-08-08T03:42:28.314Z,50.37
2022-08-08T03:44:39.349Z,50.52
2022-08-08T03:47:19.955Z,50.19
2022-08-08T03:50:00.825Z,50.34
2022-08-08T03:52:45.048Z,49.51
2022-08-08T03:55:20.444Z,49.38
2022-08-08T03:58:30.933Z,49.45
2022-08-08T04:01:23.275Z,49.29
2022-08-08T04:04:00.176Z,49.35
2022-08-08T04:06:39.901Z,48.88
2022-08-08T04:09:11.757Z,48.79
2022-08-08T04:11:57.645Z,48.92
2022-08-08T04:14:35.668Z,48.30
2022-08-08T04:17:22.761Z,48.20
2022-08-08T04:19:56.483Z,47.93
2022-08-08T04:22:29.883Z,47.85
2022-08-08T04:25:00.086Z,47.85
2022-08-08T04:28:02.723Z,47.99
2022-08-08T04:30:23.068Z,48.08
2022-08-08T04:32:54.163Z,48.23
2022-08-08T04:35:27.116Z,48.19
2022-08-08T04:37:58.109Z,48.21
2022-08-08T04:40:53.265Z,48.30
2022-08-08T04:43:32.375Z,48.42
2022-08-08T04:46:18.630Z,48.51
2022-08-08T04:48:48.494Z,48.69
2022-08-08T04:51:23.379Z,48.65
2022-08-08T04:54:39.857Z,48.83
2022-08-08T04:56:45.249Z,48.68
2022-08-08T04:59:15.568Z,48.71
2022-08-08T05:01:48.634Z,48.36
2022-08-08T05:04:18.944Z,48.36
2022-08-08T05:06:52.397Z,48.03
2022-08-08T05:09:23.403Z,46.85
2022-08-08T05:11:56.723Z,46.91
2022-08-08T05:14:30.021Z,46.88
2022-08-08T05:17:09.037Z,46.70
2022-08-08T05:20:04.342Z,46.68
2022-08-08T05:22:34.250Z,47.04
2022-08-08T05:25:03.405Z,46.67
2022-08-08T05:27:33.137Z,47.25
2022-08-08T05:30:04.813Z,47.09
2022-08-08T05:32:42.491Z,46.38
2022-08-08T05:35:15.366Z,46.23
2022-08-08T05:37:53.881Z,45.94
2022-08-08T05:40:57.486Z,45.42
2022-08-08T05:43:39.435Z,44.78
2022-08-08T05:46:24.506Z,44.17
2022-08-08T05:48:55.043Z,43.77
2022-08-08T05:51:27.591Z,44.09
2022-08-08T05:54:27.363Z,44.14
2022-08-08T05:57:08.458Z,44.28
2022-08-08T05:59:59.730Z,44.28
2022-08-08T06:03:05.147Z,44.51
2022-08-08T06:05:47.923Z,44.37
2022-08-08T06:08:33.683Z,44.11
2022-08-08T06:11:07.686Z,42.77
2022-08-08T06:13:47.131Z,42.87
2022-08-08T06:16:19.366Z,42.86
2022-08-08T06:19:18.167Z,41.37
2022-08-08T06:21:57.816Z,41.09
2022-08-08T06:24:37.480Z,40.59
2022-08-08T06:27:12.308Z,40.72
2022-08-08T06:30:00.923Z,40.61
2022-08-08T06:32:47.531Z,40.17
2022-08-08T06:36:04.711Z,40.57
2022-08-08T06:38:14.221Z,40.56
2022-08-08T06:40:54.054Z,40.15
2022-08-08T06:43:35.130Z,39.66
2022-08-08T06:46:09.144Z,40.05
2022-08-08T06:48:42.292Z,40.44
2022-08-08T06:51:15.834Z,39.90
2022-08-08T06:53:51.313Z,40.31
2022-08-08T06:56:31.712Z,40.34
2022-08-08T06:59:01.429Z,40.52
2022-08-08T07:02:17.589Z,41.00
2022-08-08T07:04:45.432Z,40.75
2022-08-08T07:07:28.000Z,41.07
2022-08-08T07:10:08.274Z,41.69
2022-08-08T07:12:43.492Z,41.76
2022-08-08T07:15:40.848Z,41.11
2022-08-08T07:18:35.091Z,42.92
2022-08-08T07:21:18.542Z,42.94
2022-08-08T07:24:02.038Z,42.49
2022-08-08T07:26:41.775Z,42.56
2022-08-08T07:29:20.415Z,41.23
2022-08-08T07:32:01.066Z,41.66
2022-08-08T07:34:32.412Z,40.72
2022-08-08T07:37:11.865Z,40.09
2022-08-08T07:39:45.577Z,38.75
2022-08-08T07:42:33.436Z,37.51
2022-08-08T07:45:06.518Z,38.14
2022-08-08T07:47:39.790Z,37.35
2022-08-08T07:50:22.101Z,37.45
2022-08-08T07:52:57.429Z,38.02
2022-08-08T07:55:30.411Z,37.57
2022-08-08T07:58:14.834Z,38.27
2022-08-08T08:00:47.711Z,37.74
2022-08-08T08:03:24.245Z,37.51
2022-08-08T08:05:59.989Z,37.79
2022-08-08T08:08:50.463Z,38.04
2022-08-08T08:11:38.092Z,37.87
2022-08-08T08:14:19.575Z,37.91
2022-08-08T08:16:50.749Z,37.79
2022-08-08T08:19:31.950Z,37.21
2022-08-08T08:22:15.011Z,37.08
2022-08-08T08:24:47.528Z,37.23
2022-08-08T08:27:22.194Z,36.45
2022-08-08T08:29:55.120Z,36.14
2022-08-08T08:32:36.033Z,36.61
2022-08-08T08:35:15.349Z,36.34
2022-08-08T08:38:13.320Z,37.01
2022-08-08T08:40:35.016Z,36.86
2022-08-08T08:43:15.209Z,36.83
2022-08-08T08:45:48.948Z,36.62
2022-08-08T08:48:21.191Z,36.63
2022-08-08T08:50:54.497Z,36.21
2022-08-08T08:53:27.482Z,35.81
2022-08-08T08:56:23.976Z,35.98
2022-08-08T08:58:58.824Z,36.51
2022-08-08T09:01:43.671Z,36.46
2022-08-08T09:04:30.946Z,37.86
2022-08-08T09:07:12.031Z,37.76
2022-08-08T09:09:48.255Z,38.22
2022-08-08T09:12:30.401Z,39.02
2022-08-08T09:15:01.709Z,39.60
2022-08-08T09:17:41.579Z,39.29
2022-08-08T09:21:56.798Z,41.04
2022-08-08T09:23:17.167Z,42.90
2022-08-08T09:26:02.059Z,43.15
2022-08-08T09:28:39.332Z,43.99
2022-08-08T09:31:42.482Z,44.76
2022-08-08T09:34:32.825Z,45.26
2022-08-08T09:37:39.698Z,45.74
2022-08-08T09:40:03.887Z,46.53
2022-08-08T09:42:44.384Z,47.21
2022-08-08T09:46:01.268Z,47.32
2022-08-08T09:48:21.070Z,47.06
2022-08-08T09:50:55.869Z,46.99
2022-08-08T09:53:59.725Z,47.47
2022-08-08T09:56:25.565Z,47.40
2022-08-08T09:59:05.327Z,47.55
2022-08-08T10:01:59.855Z,47.22
2022-08-08T10:04:38.694Z,46.66
2022-08-08T10:07:15.781Z,46.58
2022-08-08T10:09:59.930Z,47.26
2022-08-08T10:12:54.371Z,46.60
2022-08-08T10:15:27.253Z,46.18
2022-08-08T10:18:10.204Z,45.88
2022-08-08T10:20:58.230Z,45.53
2022-08-08T10:23:44.245Z,44.74
2022-08-08T10:26:25.827Z,45.00
2022-08-08T10:29:04.771Z,46.30
2022-08-08T10:31:52.671Z,46.42
2022-08-08T10:34:24.729Z,47.63
2022-08-08T10:36:59.740Z,48.90
2022-08-08T10:39:31.364Z,50.84
2022-08-08T10:42:16.705Z,50.76
2022-08-08T10:44:46.066Z,50.76
2022-08-08T10:47:20.984Z,51.04
2022-08-08T10:50:02.072Z,51.04
2022-08-08T10:52:34.095Z,51.13
2022-08-08T10:55:05.072Z,51.76
2022-08-08T10:57:50.481Z,53.49
2022-08-08T11:00:26.020Z,56.66
2022-08-08T11:02:55.279Z,56.46
2022-08-08T11:05:23.902Z,57.18
2022-08-08T11:08:37.088Z,55.69
2022-08-08T11:10:45.879Z,53.73
2022-08-08T11:13:31.692Z,51.89
2022-08-08T11:16:07.740Z,51.03
2022-08-08T11:18:40.109Z,49.74
2022-08-08T11:21:10.533Z,48.98
2022-08-08T11:24:02.415Z,48.62
2022-08-08T11:26:32.878Z,47.60
2022-08-08T11:29:03.428Z,48.39
2022-08-08T11:31:46.968Z,51.68
2022-08-08T11:34:24.462Z,51.10
2022-08-08T11:37:14.751Z,42.09
2022-08-08T11:39:57.485Z,42.05
2022-08-08T11:42:27.149Z,43.97
2022-08-08T11:44:59.274Z,40.63
2022-08-08T11:47:39.233Z,42.02
2022-08-08T11:50:11.119Z,42.51
2022-08-08T11:52:45.274Z,43.46
2022-08-08T11:55:20.062Z,44.18
2022-08-08T11:57:51.764Z,44.81
2022-08-08T12:00:29.739Z,45.02
2022-08-08T12:03:00.089Z,46.06
2022-08-08T12:05:37.155Z,46.44
2022-08-08T12:08:06.173Z,47.28
2022-08-08T12:10:47.977Z,47.61
2022-08-08T12:13:33.403Z,47.77
2022-08-08T12:16:10.328Z,46.66
2022-08-08T12:18:46.908Z,46.25
2022-08-08T12:21:25.899Z,46.39
2022-08-08T12:24:15.606Z,45.62
2022-08-08T12:26:47.307Z,45.46
2022-08-08T12:29:40.329Z,46.49
2022-08-08T12:32:17.339Z,47.26
2022-08-08T12:34:57.552Z,48.35
2022-08-08T12:37:41.011Z,48.94
2022-08-08T12:40:24.171Z,50.46
2022-08-08T12:42:55.693Z,51.28
2022-08-08T12:45:58.173Z,51.10
2022-08-08T12:48:37.403Z,52.03
2022-08-08T12:51:11.147Z,53.52
2022-08-08T12:53:57.557Z,53.56
2022-08-08T12:56:38.451Z,51.69
2022-08-08T12:59:19.495Z,50.83
2022-08-08T13:01:57.880Z,51.00
2022-08-08T13:04:29.539Z,52.32
2022-08-08T13:07:01.092Z,52.19
2022-08-08T13:09:43.221Z,52.16
2022-08-08T13:12:37.168Z,52.51
2022-08-08T13:15:12.313Z,52.58
2022-08-08T13:18:08.335Z,52.62
2022-08-08T13:20:30.582Z,53.88
2022-08-08T13:23:30.569Z,52.99
2022-08-08T13:25:51.025Z,52.79
2022-08-08T13:28:32.299Z,52.61
2022-08-08T13:31:04.091Z,53.14
2022-08-08T13:33:42.077Z,52.01
2022-08-08T13:36:12.198Z,52.19
2022-08-08T13:38:41.640Z,53.25
2022-08-08T13:41:15.901Z,54.54
2022-08-08T13:43:46.987Z,53.91
2022-08-08T13:46:26.652Z,53.43
2022-08-08T13:49:11.803Z,53.32
2022-08-08T13:51:54.714Z,52.83
2022-08-08T13:54:29.310Z,52.42
2022-08-08T13:57:08.593Z,51.99
2022-08-08T13:59:44.342Z,52.01
2022-08-08T14:02:21.630Z,51.30
2022-08-08T14:04:57.700Z,51.72
2022-08-08T14:07:38.895Z,52.31
2022-08-08T14:10:17.131Z,51.42
2022-08-08T14:12:47.827Z,50.91
2022-08-08T14:15:31.411Z,50.56
2022-08-08T14:18:35.007Z,50.33
2022-08-08T14:21:03.701Z,50.60
2022-08-08T14:24:07.886Z,50.48
2022-08-08T14:26:33.275Z,50.77
2022-08-08T14:29:05.747Z,50.28
2022-08-08T14:32:05.778Z,50.84
2022-08-08T14:34:29.533Z,50.07
2022-08-08T14:36:58.083Z,48.53
2022-08-08T14:39:48.068Z,48.23
2022-08-08T14:42:16.679Z,49.41
2022-08-08T14:44:55.394Z,50.07
2022-08-08T14:47:23.827Z,50.07
2022-08-08T14:50:21.313Z,51.16
2022-08-08T14:52:57.397Z,51.14
2022-08-08T14:55:35.377Z,51.11
2022-08-08T14:58:11.747Z,51.23
2022-08-08T15:00:44.776Z,51.40
2022-08-08T15:03:16.110Z,51.23
2022-08-08T15:05:54.486Z,51.69
2022-08-08T15:08:34.348Z,51.66
2022-08-08T15:11:09.403Z,51.33
2022-08-08T15:14:01.743Z,52.42
2022-08-08T15:16:34.317Z,52.36
2022-08-08T15:19:04.020Z,51.45
2022-08-08T15:21:34.742Z,51.33
2022-08-08T15:24:12.644Z,52.58
2022-08-08T15:26:52.247Z,52.04
2022-08-08T15:29:22.631Z,52.39
2022-08-08T15:32:17.495Z,53.07
2022-08-08T15:34:41.005Z,53.35
2022-08-08T15:37:13.100Z,53.70
2022-08-08T15:39:41.553Z,53.62
2022-08-08T15:42:18.169Z,55.22
2022-08-08T15:44:59.093Z,56.30
2022-08-08T15:47:27.254Z,56.32
2022-08-08T15:49:55.722Z,56.35
2022-08-08T15:52:25.867Z,55.63
2022-08-08T15:54:54.438Z,55.84
2022-08-08T15:57:24.044Z,56.51
2022-08-08T16:00:25.648Z,56.56
2022-08-08T16:02:50.203Z,56.77
2022-08-08T16:05:20.557Z,56.78
2022-08-08T16:07:53.917Z,57.31
2022-08-08T16:13:02.364Z,57.74
2022-08-08T16:13:34.522Z,57.96
2022-08-08T16:16:16.409Z,57.83
2022-08-08T16:18:56.723Z,57.67
2022-08-08T16:21:29.049Z,58.83
2022-08-08T16:24:00.786Z,58.71
2022-08-08T16:26:34.633Z,58.75
2022-08-08T16:29:07.744Z,58.60
2022-08-08T16:31:40.873Z,58.22
2022-08-08T16:34:10.189Z,59.05
2022-08-08T16:36:40.768Z,59.04
2022-08-08T16:39:27.731Z,59.09
2022-08-08T16:42:01.125Z,59.47
2022-08-08T16:44:33.713Z,59.25
2022-08-08T16:47:41.516Z,59.50
2022-08-08T16:50:13.937Z,59.62
2022-08-08T16:55:00.057Z,59.79
2022-08-08T16:55:54.003Z,59.90
2022-08-08T16:58:25.640Z,59.44
2022-08-08T17:00:57.879Z,59.34
2022-08-08T17:03:58.548Z,58.91
2022-08-08T17:06:37.030Z,59.49
2022-08-08T17:09:07.298Z,59.75
2022-08-08T17:11:48.795Z,60.26
2022-08-08T17:14:33.824Z,60.41
2022-08-08T17:17:03.819Z,60.11
2022-08-08T17:19:40.996Z,59.57
2022-08-08T17:22:10.732Z,59.35
2022-08-08T17:24:40.934Z,58.69
2022-08-08T17:27:10.762Z,58.71
2022-08-08T17:29:43.698Z,58.53
2022-08-08T17:32:29.043Z,57.75
2022-08-08T17:35:53.407Z,57.74
2022-08-08T17:37:51.882Z,57.72
2022-08-08T17:40:22.023Z,57.87
2022-08-08T17:42:51.554Z,58.12
2022-08-08T17:45:22.495Z,58.19
2022-08-08T17:47:53.917Z,57.91
2022-08-08T17:50:24.709Z,57.96
2022-08-08T17:52:53.689Z,58.00
2022-08-08T17:56:06.678Z,57.88
2022-08-08T17:58:12.377Z,58.57
2022-08-08T18:00:41.187Z,59.25
2022-08-08T18:03:13.686Z,59.73
2022-08-08T18:05:48.718Z,60.98
2022-08-08T18:08:38.005Z,61.78
2022-08-08T18:11:15.030Z,63.02
2022-08-08T18:13:47.098Z,63.63
2022-08-08T18:16:20.665Z,64.19
2022-08-08T18:18:56.039Z,65.14
2022-08-08T18:21:58.743Z,65.60
2022-08-08T18:24:18.993Z,66.44
2022-08-08T18:26:54.509Z,66.82
2022-08-08T18:29:30.194Z,66.31
2022-08-08T18:32:03.477Z,66.30
2022-08-08T18:34:33.856Z,66.74
2022-08-08T18:37:06.524Z,66.86
2022-08-08T18:39:37.448Z,66.69
2022-08-08T18:42:13.981Z,66.75
2022-08-08T18:44:54.899Z,65.65
2022-08-08T18:47:24.870Z,64.17
2022-08-08T18:49:58.599Z,63.68
2022-08-08T18:52:30.051Z,62.84
2022-08-08T18:55:09.693Z,62.78
2022-08-08T18:57:44.625Z,62.09
2022-08-08T19:00:20.325Z,62.09
2022-08-08T19:02:55.228Z,61.88
2022-08-08T19:05:34.784Z,61.94
2022-08-08T19:08:25.132Z,62.20
2022-08-08T19:10:59.160Z,62.59
2022-08-08T19:13:53.948Z,62.70
2022-08-08T19:16:19.565Z,62.68
2022-08-08T19:18:53.045Z,62.53
2022-08-08T19:21:32.729Z,62.46
2022-08-08T19:24:05.604Z,62.57
2022-08-08T19:26:35.649Z,62.46
2022-08-08T19:29:06.180Z,62.79
2022-08-08T19:31:36.148Z,62.71
2022-08-08T19:34:36.339Z,62.54
2022-08-08T19:36:55.247Z,62.64
2022-08-08T19:39:34.878Z,62.90
2022-08-08T19:42:04.813Z,63.70
2022-08-08T19:44:45.410Z,64.06
2022-08-08T19:47:16.576Z,64.44
2022-08-08T19:49:59.898Z,64.67
2022-08-08T19:52:34.369Z,65.18
2022-08-08T19:55:05.079Z,65.02
2022-08-08T19:57:35.633Z,65.32
2022-08-08T20:00:11.422Z,65.34
2022-08-08T20:02:56.170Z,65.06
2022-08-08T20:06:13.736Z,64.94
2022-08-08T20:08:27.984Z,64.33
2022-08-08T20:10:59.109Z,64.16
2022-08-08T20:14:12.411Z,63.62
2022-08-08T20:16:16.100Z,63.17
2022-08-08T20:18:52.593Z,63.26
2022-08-08T20:21:25.552Z,62.87
2022-08-08T20:23:57.950Z,62.58
2022-08-08T20:26:33.379Z,62.56
2022-08-08T20:29:02.600Z,61.32
2022-08-08T20:32:06.856Z,62.15
2022-08-08T20:34:29.436Z,61.99
2022-08-08T20:37:00.165Z,61.96
2022-08-08T20:39:39.251Z,61.18
2022-08-08T20:42:16.807Z,61.61
2022-08-08T20:44:46.344Z,61.17
2022-08-08T20:47:15.783Z,61.22
2022-08-08T20:49:54.327Z,60.66
2022-08-08T20:52:25.832Z,60.79
2022-08-08T20:54:54.138Z,60.99
2022-08-08T20:57:22.362Z,61.21
2022-08-08T20:59:56.050Z,60.87
2022-08-08T21:02:25.654Z,61.02
2022-08-08T21:05:00.242Z,60.95
2022-08-08T21:08:07.847Z,60.90
2022-08-08T21:10:20.913Z,61.06
2022-08-08T21:12:54.102Z,61.02
2022-08-08T21:16:05.970Z,61.22
2022-08-08T21:18:11.858Z,61.24
2022-08-08T21:20:42.277Z,61.37
2022-08-08T21:23:13.188Z,61.44
2022-08-08T21:25:48.980Z,61.42
2022-08-08T21:28:19.327Z,61.50
2022-08-08T21:31:22.041Z,61.72
2022-08-08T21:33:50.294Z,61.85
2022-08-08T21:36:28.667Z,62.04
2022-08-08T21:38:57.654Z,61.81
2022-08-08T21:41:38.534Z,61.62
2022-08-08T21:44:14.954Z,61.87
2022-08-08T21:48:07.512Z,61.81
2022-08-08T21:49:33.608Z,61.86
2022-08-08T21:54:35.170Z,61.80
2022-08-08T21:55:01.884Z,61.58
2022-08-08T21:57:42.920Z,61.39
2022-08-08T22:00:26.127Z,62.01
2022-08-08T22:02:54.602Z,62.56
2022-08-08T22:05:23.181Z,62.80
2022-08-08T22:07:52.846Z,63.48
2022-08-08T22:10:32.518Z,64.09
2022-08-08T22:13:18.472Z,63.76
2022-08-08T22:15:58.952Z,64.16
2022-08-08T22:18:29.818Z,64.06
2022-08-08T22:21:01.710Z,64.80
2022-08-08T22:23:51.578Z,65.89
2022-08-08T22:26:29.902Z,66.03
2022-08-08T22:29:14.788Z,66.06
2022-08-08T22:32:01.634Z,65.29
2022-08-08T22:34:32.187Z,64.75
2022-08-08T22:37:00.413Z,64.66
2022-08-08T22:39:46.345Z,64.40
2022-08-08T22:42:27.155Z,64.78
2022-08-08T22:44:56.176Z,65.22
2022-08-08T22:47:38.052Z,65.23
2022-08-08T22:50:09.743Z,65.14
2022-08-08T22:53:24.151Z,64.98
2022-08-08T22:55:59.641Z,64.86
2022-08-08T22:58:30.989Z,64.98
2022-08-08T23:01:00.685Z,64.99
2022-08-08T23:03:34.240Z,64.87
2022-08-08T23:06:17.925Z,65.21
2022-08-08T23:08:55.306Z,66.40
2022-08-08T23:11:30.997Z,67.08
2022-08-08T23:14:18.347Z,67.70
2022-08-08T23:16:57.652Z,67.85
2022-08-08T23:19:27.919Z,68.19
2022-08-08T23:22:01.214Z,68.23
2022-08-08T23:24:36.488Z,68.80
2022-08-08T23:27:07.485Z,68.69
2022-08-08T23:29:36.085Z,69.15
2022-08-08T23:32:06.329Z,69.08
2022-08-08T23:34:40.185Z,69.48
2022-08-08T23:37:26.823Z,69.57
2022-08-08T23:40:15.528Z,69.51
2022-08-08T23:42:45.522Z,69.61
2022-08-08T23:45:14.557Z,69.72
2022-08-08T23:49:07.967Z,69.42
2022-08-08T23:50:32.401Z,69.50
2022-08-08T23:53:05.271Z,69.63
2022-08-08T23:55:42.211Z,69.98
2022-08-08T23:58:31.918Z,70.17
